sensor_id;sensor_type;location;lat;lon;timestamp;pressure;altitude;pressure_sealevel;temperature;humidity
67109;BME280;54027;50.786;7.058;2023-02-04T00:01:24;102609.03;;;9.17;80.98
67109;BME280;54027;50.786;7.058;2023-02-04T00:03:50;102622.00;;;9.20;80.40
67109;BME280;54027;50.786;7.058;2023-02-04T00:06:16;102636.59;;;9.19;80.98
67109;BME280;54027;50.786;7.058;2023-02-04T00:08:42;102626.28;;;9.19;80.52
67109;BME280;54027;50.786;7.058;2023-02-04T00:11:07;102638.16;;;9.14;80.57
67109;BME280;54027;50.786;7.058;2023-02-04T00:13:33;102640.75;;;9.14;80.69
67109;BME280;54027;50.786;7.058;2023-02-04T00:15:58;102643.25;;;9.11;80.61
67109;BME280;54027;50.786;7.058;2023-02-04T00:18:23;102638.97;;;9.11;81.09
67109;BME280;54027;50.786;7.058;2023-02-04T00:20:49;102655.22;;;9.09;80.58
67109;BME280;54027;50.786;7.058;2023-02-04T00:23:14;102656.06;;;9.08;80.08
67109;BME280;54027;50.786;7.058;2023-02-04T00:25:40;102651.75;;;9.07;80.71
67109;BME280;54027;50.786;7.058;2023-02-04T00:28:05;102657.72;;;9.06;80.62
67109;BME280;54027;50.786;7.058;2023-02-04T00:30:31;102656.91;;;9.07;79.91
67109;BME280;54027;50.786;7.058;2023-02-04T00:32:57;102649.97;;;9.04;79.93
67109;BME280;54027;50.786;7.058;2023-02-04T00:35:23;102660.31;;;9.06;79.64
67109;BME280;54027;50.786;7.058;2023-02-04T00:37:49;102649.09;;;9.04;80.18
67109;BME280;54027;50.786;7.058;2023-02-04T00:40:15;102661.97;;;9.04;79.78
67109;BME280;54027;50.786;7.058;2023-02-04T00:42:40;102655.19;;;9.07;78.72
67109;BME280;54027;50.786;7.058;2023-02-04T00:45:06;102669.03;;;9.11;78.38
67109;BME280;54027;50.786;7.058;2023-02-04T00:47:31;102661.28;;;9.09;78.26
67109;BME280;54027;50.786;7.058;2023-02-04T00:49:57;102660.38;;;9.09;77.58
67109;BME280;54027;50.786;7.058;2023-02-04T00:52:22;102668.28;;;9.13;76.80
67109;BME280;54027;50.786;7.058;2023-02-04T00:54:48;102675.03;;;9.10;76.94
67109;BME280;54027;50.786;7.058;2023-02-04T00:57:14;102665.59;;;9.10;76.44
67109;BME280;54027;50.786;7.058;2023-02-04T00:59:39;102678.44;;;9.09;76.98
67109;BME280;54027;50.786;7.058;2023-02-04T01:02:04;102673.25;;;9.07;77.22
67109;BME280;54027;50.786;7.058;2023-02-04T01:04:30;102679.25;;;9.06;76.94
67109;BME280;54027;50.786;7.058;2023-02-04T01:06:55;102685.19;;;9.04;77.19
67109;BME280;54027;50.786;7.058;2023-02-04T01:09:24;102674.81;;;9.02;76.71
67109;BME280;54027;50.786;7.058;2023-02-04T01:11:49;102679.06;;;9.00;76.90
67109;BME280;54027;50.786;7.058;2023-02-04T01:14:15;102686.81;;;9.00;76.93
67109;BME280;54027;50.786;7.058;2023-02-04T01:16:40;102691.16;;;9.01;76.71
67109;BME280;54027;50.786;7.058;2023-02-04T01:19:05;102692.78;;;8.99;76.88
67109;BME280;54027;50.786;7.058;2023-02-04T01:21:31;102691.00;;;8.97;76.65
67109;BME280;54027;50.786;7.058;2023-02-04T01:23:56;102690.19;;;8.99;76.11
67109;BME280;54027;50.786;7.058;2023-02-04T01:26:22;102701.38;;;8.98;76.55
67109;BME280;54027;50.786;7.058;2023-02-04T01:28:47;102708.22;;;8.98;76.35
67109;BME280;54027;50.786;7.058;2023-02-04T01:31:13;102719.34;;;8.95;77.02
67109;BME280;54027;50.786;7.058;2023-02-04T01:33:39;102713.22;;;8.92;76.54
67109;BME280;54027;50.786;7.058;2023-02-04T01:36:05;102712.38;;;8.93;77.01
67109;BME280;54027;50.786;7.058;2023-02-04T01:38:30;102718.31;;;8.90;77.11
67109;BME280;54027;50.786;7.058;2023-02-04T01:40:56;102715.69;;;8.89;77.46
67109;BME280;54027;50.786;7.058;2023-02-04T01:43:22;102704.50;;;8.88;76.58
67109;BME280;54027;50.786;7.058;2023-02-04T01:45:49;102717.38;;;8.87;76.69
67109;BME280;54027;50.786;7.058;2023-02-04T01:48:15;102723.28;;;8.84;77.05
67109;BME280;54027;50.786;7.058;2023-02-04T01:50:58;102724.06;;;8.82;77.28
67109;BME280;54027;50.786;7.058;2023-02-04T01:53:26;102724.06;;;8.82;77.82
67109;BME280;54027;50.786;7.058;2023-02-04T01:55:52;102719.69;;;8.79;77.20
67109;BME280;54027;50.786;7.058;2023-02-04T01:58:17;102736.84;;;8.77;77.72
67109;BME280;54027;50.786;7.058;2023-02-04T02:00:43;102740.19;;;8.75;78.54
67109;BME280;54027;50.786;7.058;2023-02-04T02:03:09;102741.03;;;8.74;78.59
67109;BME280;54027;50.786;7.058;2023-02-04T02:05:47;102734.16;;;8.74;78.24
67109;BME280;54027;50.786;7.058;2023-02-04T02:08:14;102741.00;;;8.72;78.05
67109;BME280;54027;50.786;7.058;2023-02-04T02:10:43;102744.38;;;8.71;78.29
67109;BME280;54027;50.786;7.058;2023-02-04T02:13:12;102757.28;;;8.71;78.15
67109;BME280;54027;50.786;7.058;2023-02-04T02:15:40;102757.19;;;8.68;77.62
67109;BME280;54027;50.786;7.058;2023-02-04T02:18:06;102752.81;;;8.66;78.49
67109;BME280;54027;50.786;7.058;2023-02-04T02:20:32;102752.81;;;8.66;78.06
67109;BME280;54027;50.786;7.058;2023-02-04T02:23:25;102756.19;;;8.65;77.79
67109;BME280;54027;50.786;7.058;2023-02-04T02:25:53;102754.44;;;8.64;78.08
67109;BME280;54027;50.786;7.058;2023-02-04T02:28:20;102771.56;;;8.62;78.11
67109;BME280;54027;50.786;7.058;2023-02-04T02:30:46;102757.91;;;8.64;78.10
67109;BME280;54027;50.786;7.058;2023-02-04T02:33:14;102756.16;;;8.63;77.87
67109;BME280;54027;50.786;7.058;2023-02-04T02:35:41;102756.91;;;8.61;77.96
67109;BME280;54027;50.786;7.058;2023-02-04T02:38:09;102776.63;;;8.58;77.54
67109;BME280;54027;50.786;7.058;2023-02-04T02:40:35;102773.94;;;8.55;78.45
67109;BME280;54027;50.786;7.058;2023-02-04T02:43:01;102773.94;;;8.55;78.24
67109;BME280;54027;50.786;7.058;2023-02-04T02:45:29;102772.19;;;8.54;78.68
67109;BME280;54027;50.786;7.058;2023-02-04T02:47:58;102777.34;;;8.54;78.64
67109;BME280;54027;50.786;7.058;2023-02-04T02:50:25;102785.94;;;8.53;78.29
67109;BME280;54027;50.786;7.058;2023-02-04T02:52:52;102782.34;;;8.48;78.73
67109;BME280;54027;50.786;7.058;2023-02-04T02:55:21;102776.19;;;8.45;78.91
67109;BME280;54027;50.786;7.058;2023-02-04T02:57:48;102783.75;;;8.40;79.21
67109;BME280;54027;50.786;7.058;2023-02-04T03:00:25;102787.03;;;8.35;80.27
67109;BME280;54027;50.786;7.058;2023-02-04T03:03:09;102790.22;;;8.28;82.43
67109;BME280;54027;50.786;7.058;2023-02-04T03:05:42;102792.53;;;8.20;83.60
67109;BME280;54027;50.786;7.058;2023-02-04T03:08:10;102798.38;;;8.15;84.14
67109;BME280;54027;50.786;7.058;2023-02-04T03:10:37;102793.94;;;8.11;84.89
67109;BME280;54027;50.786;7.058;2023-02-04T03:13:02;102802.41;;;8.07;85.34
67109;BME280;54027;50.786;7.058;2023-02-04T03:15:29;102810.00;;;8.04;86.25
67109;BME280;54027;50.786;7.058;2023-02-04T03:17:55;102814.19;;;8.00;86.23
67109;BME280;54027;50.786;7.058;2023-02-04T03:20:23;102806.44;;;8.00;86.32
67109;BME280;54027;50.786;7.058;2023-02-04T03:22:50;102809.81;;;7.97;86.41
67109;BME280;54027;50.786;7.058;2023-02-04T03:25:15;102804.59;;;7.96;86.97
67109;BME280;54027;50.786;7.058;2023-02-04T03:27:41;102815.72;;;7.95;87.62
67109;BME280;54027;50.786;7.058;2023-02-04T03:30:07;102814.84;;;7.94;87.47
67109;BME280;54027;50.786;7.058;2023-02-04T03:32:33;102810.50;;;7.93;87.29
67109;BME280;54027;50.786;7.058;2023-02-04T03:34:58;102814.75;;;7.91;87.65
67109;BME280;54027;50.786;7.058;2023-02-04T03:37:24;102820.69;;;7.90;88.05
67109;BME280;54027;50.786;7.058;2023-02-04T03:39:49;102827.59;;;7.91;87.88
67109;BME280;54027;50.786;7.058;2023-02-04T03:42:15;102831.81;;;7.89;87.84
67109;BME280;54027;50.786;7.058;2023-02-04T03:44:42;102823.22;;;7.89;88.07
67109;BME280;54027;50.786;7.058;2023-02-04T03:47:07;102825.81;;;7.89;87.93
67109;BME280;54027;50.786;7.058;2023-02-04T03:49:33;102827.41;;;7.85;88.27
67109;BME280;54027;50.786;7.058;2023-02-04T03:52:00;102831.66;;;7.85;88.08
67109;BME280;54027;50.786;7.058;2023-02-04T03:54:25;102828.19;;;7.84;88.35
67109;BME280;54027;50.786;7.058;2023-02-04T03:56:50;102836.81;;;7.85;88.11
67109;BME280;54027;50.786;7.058;2023-02-04T03:59:16;102838.50;;;7.84;88.17
67109;BME280;54027;50.786;7.058;2023-02-04T04:01:41;102844.47;;;7.83;87.67
67109;BME280;54027;50.786;7.058;2023-02-04T04:04:06;102842.72;;;7.82;88.03
67109;BME280;54027;50.786;7.058;2023-02-04T04:06:32;102836.69;;;7.82;88.37
67109;BME280;54027;50.786;7.058;2023-02-04T04:08:57;102844.47;;;7.83;87.91
67109;BME280;54027;50.786;7.058;2023-02-04T04:11:23;102847.03;;;7.83;88.04
67109;BME280;54027;50.786;7.058;2023-02-04T04:13:48;102845.31;;;7.82;87.80
67109;BME280;54027;50.786;7.058;2023-02-04T04:16:14;102847.81;;;7.81;88.11
67109;BME280;54027;50.786;7.058;2023-02-04T04:18:39;102847.78;;;7.79;87.81
67109;BME280;54027;50.786;7.058;2023-02-04T04:21:04;102843.44;;;7.78;88.38
67109;BME280;54027;50.786;7.058;2023-02-04T04:23:30;102851.16;;;7.78;87.93
67109;BME280;54027;50.786;7.058;2023-02-04T04:25:55;102846.81;;;7.77;88.65
67109;BME280;54027;50.786;7.058;2023-02-04T04:28:21;102850.22;;;7.76;88.25
67109;BME280;54027;50.786;7.058;2023-02-04T04:30:46;102844.19;;;7.76;87.99
67109;BME280;54027;50.786;7.058;2023-02-04T04:33:11;102858.75;;;7.75;88.15
67109;BME280;54027;50.786;7.058;2023-02-04T04:35:37;102851.88;;;7.74;88.21
67109;BME280;54027;50.786;7.058;2023-02-04T04:38:03;102851.81;;;7.73;88.42
67109;BME280;54027;50.786;7.058;2023-02-04T04:40:28;102853.56;;;7.74;88.15
67109;BME280;54027;50.786;7.058;2023-02-04T04:42:54;102853.47;;;7.71;88.72
67109;BME280;54027;50.786;7.058;2023-02-04T04:45:20;102861.13;;;7.69;88.35
67109;BME280;54027;50.786;7.058;2023-02-04T04:47:46;102859.31;;;7.67;88.80
67109;BME280;54027;50.786;7.058;2023-02-04T04:50:11;102861.88;;;7.67;88.85
67109;BME280;54027;50.786;7.058;2023-02-04T04:52:37;102861.84;;;7.65;88.60
67109;BME280;54027;50.786;7.058;2023-02-04T04:55:03;102871.25;;;7.65;89.10
67109;BME280;54027;50.786;7.058;2023-02-04T04:57:29;102869.56;;;7.65;88.60
67109;BME280;54027;50.786;7.058;2023-02-04T04:59:55;102879.84;;;7.65;89.02
67109;BME280;54027;50.786;7.058;2023-02-04T05:02:20;102884.13;;;7.65;89.04
67109;BME280;54027;50.786;7.058;2023-02-04T05:04:46;102875.44;;;7.63;89.05
67109;BME280;54027;50.786;7.058;2023-02-04T05:07:11;102889.16;;;7.62;89.12
67109;BME280;54027;50.786;7.058;2023-02-04T05:09:36;102887.41;;;7.61;88.49
67109;BME280;54027;50.786;7.058;2023-02-04T05:12:02;102889.16;;;7.62;88.80
67109;BME280;54027;50.786;7.058;2023-02-04T05:14:28;102889.97;;;7.61;89.09
67109;BME280;54027;50.786;7.058;2023-02-04T05:16:53;102885.63;;;7.60;88.83
67109;BME280;54027;50.786;7.058;2023-02-04T05:19:18;102895.13;;;7.61;88.27
67109;BME280;54027;50.786;7.058;2023-02-04T05:21:44;102891.66;;;7.60;88.65
67109;BME280;54027;50.786;7.058;2023-02-04T05:24:09;102893.34;;;7.60;88.12
67109;BME280;54027;50.786;7.058;2023-02-04T05:26:35;102891.66;;;7.60;88.03
67109;BME280;54027;50.786;7.058;2023-02-04T05:29:00;102888.19;;;7.60;88.45
67109;BME280;54027;50.786;7.058;2023-02-04T05:31:25;102891.66;;;7.60;88.36
67109;BME280;54027;50.786;7.058;2023-02-04T05:33:51;102895.91;;;7.60;88.36
67109;BME280;54027;50.786;7.058;2023-02-04T05:36:16;102904.47;;;7.59;88.23
67109;BME280;54027;50.786;7.058;2023-02-04T05:38:42;102908.75;;;7.58;88.15
67109;BME280;54027;50.786;7.058;2023-02-04T05:41:07;102913.88;;;7.58;88.02
67109;BME280;54027;50.786;7.058;2023-02-04T05:43:33;102921.53;;;7.57;88.02
67109;BME280;54027;50.786;7.058;2023-02-04T05:45:59;102915.53;;;7.56;88.05
67109;BME280;54027;50.786;7.058;2023-02-04T05:48:25;102907.81;;;7.56;88.59
67109;BME280;54027;50.786;7.058;2023-02-04T05:50:50;102920.69;;;7.56;88.34
67109;BME280;54027;50.786;7.058;2023-02-04T05:53:15;102924.88;;;7.54;88.45
67109;BME280;54027;50.786;7.058;2023-02-04T05:55:41;102928.28;;;7.53;88.22
67109;BME280;54027;50.786;7.058;2023-02-04T05:58:06;102924.84;;;7.53;88.47
67109;BME280;54027;50.786;7.058;2023-02-04T06:00:32;102931.66;;;7.52;88.59
67109;BME280;54027;50.786;7.058;2023-02-04T06:02:57;102921.31;;;7.51;88.33
67109;BME280;54027;50.786;7.058;2023-02-04T06:05:22;102935.06;;;7.51;88.44
67109;BME280;54027;50.786;7.058;2023-02-04T06:07:48;102939.31;;;7.51;88.42
67109;BME280;54027;50.786;7.058;2023-02-04T06:10:14;102941.03;;;7.50;88.18
67109;BME280;54027;50.786;7.058;2023-02-04T06:12:39;102937.63;;;7.51;88.20
67109;BME280;54027;50.786;7.058;2023-02-04T06:15:05;102935.88;;;7.50;88.47
67109;BME280;54027;50.786;7.058;2023-02-04T06:17:31;102947.09;;;7.52;88.31
67109;BME280;54027;50.786;7.058;2023-02-04T06:19:56;102944.47;;;7.51;87.70
67109;BME280;54027;50.786;7.058;2023-02-04T06:22:22;102949.59;;;7.51;87.90
67109;BME280;54027;50.786;7.058;2023-02-04T06:24:49;102954.75;;;7.51;87.97
67109;BME280;54027;50.786;7.058;2023-02-04T06:27:14;102957.31;;;7.51;88.32
67109;BME280;54027;50.786;7.058;2023-02-04T06:29:48;102963.31;;;7.50;88.06
67109;BME280;54027;50.786;7.058;2023-02-04T06:32:13;102962.47;;;7.51;88.07
67109;BME280;54027;50.786;7.058;2023-02-04T06:34:39;102965.03;;;7.51;88.12
67109;BME280;54027;50.786;7.058;2023-02-04T06:37:04;102961.53;;;7.49;88.18
67109;BME280;54027;50.786;7.058;2023-02-04T06:39:30;102973.53;;;7.48;87.97
67109;BME280;54027;50.786;7.058;2023-02-04T06:41:55;102974.38;;;7.47;87.92
67109;BME280;54027;50.786;7.058;2023-02-04T06:44:21;102972.59;;;7.46;88.51
67109;BME280;54027;50.786;7.058;2023-02-04T06:46:46;102965.66;;;7.43;88.36
67109;BME280;54027;50.786;7.058;2023-02-04T06:49:11;102965.56;;;7.42;88.31
67109;BME280;54027;50.786;7.058;2023-02-04T06:51:37;102970.66;;;7.40;88.64
67109;BME280;54027;50.786;7.058;2023-02-04T06:54:02;102968.84;;;7.38;88.25
67109;BME280;54027;50.786;7.058;2023-02-04T06:56:28;102972.25;;;7.37;89.08
67109;BME280;54027;50.786;7.058;2023-02-04T06:58:53;102973.03;;;7.36;88.38
67109;BME280;54027;50.786;7.058;2023-02-04T07:01:19;102966.97;;;7.34;88.98
67109;BME280;54027;50.786;7.058;2023-02-04T07:03:44;102975.50;;;7.33;88.54
67109;BME280;54027;50.786;7.058;2023-02-04T07:06:11;102973.75;;;7.32;88.46
67109;BME280;54027;50.786;7.058;2023-02-04T07:08:38;102991.69;;;7.30;89.04
67109;BME280;54027;50.786;7.058;2023-02-04T07:11:03;102991.63;;;7.29;89.26
67109;BME280;54027;50.786;7.058;2023-02-04T07:13:29;102982.91;;;7.25;89.21
67109;BME280;54027;50.786;7.058;2023-02-04T07:15:54;102984.69;;;7.26;89.23
67109;BME280;54027;50.786;7.058;2023-02-04T07:18:20;102996.59;;;7.24;89.78
67109;BME280;54027;50.786;7.058;2023-02-04T07:20:45;102997.53;;;7.26;89.60
67109;BME280;54027;50.786;7.058;2023-02-04T07:23:11;102997.53;;;7.26;89.24
67109;BME280;54027;50.786;7.058;2023-02-04T07:25:36;102995.81;;;7.27;89.77
67109;BME280;54027;50.786;7.058;2023-02-04T07:28:03;103003.53;;;7.27;89.78
67109;BME280;54027;50.786;7.058;2023-02-04T07:30:30;103002.81;;;7.29;89.70
67109;BME280;54027;50.786;7.058;2023-02-04T07:32:55;103009.78;;;7.32;90.13
67109;BME280;54027;50.786;7.058;2023-02-04T07:35:21;103013.34;;;7.35;89.34
67109;BME280;54027;50.786;7.058;2023-02-04T07:37:46;103013.53;;;7.40;89.09
67109;BME280;54027;50.786;7.058;2023-02-04T07:40:12;103007.63;;;7.42;89.33
67109;BME280;54027;50.786;7.058;2023-02-04T07:42:37;103018.13;;;7.47;89.27
67109;BME280;54027;50.786;7.058;2023-02-04T07:45:03;103023.31;;;7.49;88.97
67109;BME280;54027;50.786;7.058;2023-02-04T07:47:29;103026.88;;;7.52;88.55
67109;BME280;54027;50.786;7.058;2023-02-04T07:49:54;103025.25;;;7.54;88.87
67109;BME280;54027;50.786;7.058;2023-02-04T07:52:24;103037.34;;;7.57;88.32
67109;BME280;54027;50.786;7.058;2023-02-04T07:54:49;103036.63;;;7.59;88.41
67109;BME280;54027;50.786;7.058;2023-02-04T07:57:16;103041.88;;;7.62;88.50
67109;BME280;54027;50.786;7.058;2023-02-04T07:59:42;103039.34;;;7.64;88.60
67109;BME280;54027;50.786;7.058;2023-02-04T08:02:08;103042.88;;;7.66;88.19
67109;BME280;54027;50.786;7.058;2023-02-04T08:04:34;103047.16;;;7.65;88.20
67109;BME280;54027;50.786;7.058;2023-02-04T08:07:00;103047.28;;;7.68;87.74
67109;BME280;54027;50.786;7.058;2023-02-04T08:09:25;103050.59;;;7.66;87.53
67109;BME280;54027;50.786;7.058;2023-02-04T08:11:51;103049.72;;;7.65;87.78
67109;BME280;54027;50.786;7.058;2023-02-04T08:14:17;103051.53;;;7.68;87.20
67109;BME280;54027;50.786;7.058;2023-02-04T08:16:42;103062.59;;;7.65;87.81
67109;BME280;54027;50.786;7.058;2023-02-04T08:19:08;103061.88;;;7.69;87.36
67109;BME280;54027;50.786;7.058;2023-02-04T08:21:33;103059.31;;;7.69;87.38
67109;BME280;54027;50.786;7.058;2023-02-04T08:23:58;103062.78;;;7.70;87.64
67109;BME280;54027;50.786;7.058;2023-02-04T08:26:24;103055.97;;;7.72;87.53
67109;BME280;54027;50.786;7.058;2023-02-04T08:28:49;103057.75;;;7.73;87.36
67109;BME280;54027;50.786;7.058;2023-02-04T08:31:15;103059.56;;;7.75;87.65
67109;BME280;54027;50.786;7.058;2023-02-04T08:33:40;103055.34;;;7.77;88.00
67109;BME280;54027;50.786;7.058;2023-02-04T08:36:06;103061.56;;;7.82;87.68
67109;BME280;54027;50.786;7.058;2023-02-04T08:38:32;103059.88;;;7.83;87.52
67109;BME280;54027;50.786;7.058;2023-02-04T08:40:57;103067.84;;;7.89;87.67
67109;BME280;54027;50.786;7.058;2023-02-04T08:43:24;103072.34;;;7.94;87.40
67109;BME280;54027;50.786;7.058;2023-02-04T08:45:49;103070.06;;;8.02;87.35
67109;BME280;54027;50.786;7.058;2023-02-04T08:48:15;103063.50;;;8.10;86.94
67109;BME280;54027;50.786;7.058;2023-02-04T08:50:41;103070.59;;;8.16;86.79
67109;BME280;54027;50.786;7.058;2023-02-04T08:53:06;103070.09;;;8.26;86.14
67109;BME280;54027;50.786;7.058;2023-02-04T08:55:33;103066.06;;;8.32;85.38
67109;BME280;54027;50.786;7.058;2023-02-04T08:57:58;103073.84;;;8.34;85.18
67109;BME280;54027;50.786;7.058;2023-02-04T09:00:25;103079.19;;;8.38;85.40
67109;BME280;54027;50.786;7.058;2023-02-04T09:02:51;103077.53;;;8.40;85.00
67109;BME280;54027;50.786;7.058;2023-02-04T09:05:16;103091.50;;;8.45;84.92
67109;BME280;54027;50.786;7.058;2023-02-04T09:07:41;103088.16;;;8.48;85.09
67109;BME280;54027;50.786;7.058;2023-02-04T09:10:07;103090.09;;;8.55;85.01
67109;BME280;54027;50.786;7.058;2023-02-04T09:12:33;103100.41;;;8.55;84.27
67109;BME280;54027;50.786;7.058;2023-02-04T09:14:58;103102.88;;;8.52;84.19
67109;BME280;54027;50.786;7.058;2023-02-04T09:17:24;103102.06;;;8.53;84.09
67109;BME280;54027;50.786;7.058;2023-02-04T09:19:49;103102.22;;;8.57;84.87
67109;BME280;54027;50.786;7.058;2023-02-04T09:22:15;103108.44;;;8.63;84.77
67109;BME280;54027;50.786;7.058;2023-02-04T09:24:40;103108.38;;;8.61;83.54
67109;BME280;54027;50.786;7.058;2023-02-04T09:27:06;103104.34;;;8.68;83.94
67109;BME280;54027;50.786;7.058;2023-02-04T09:29:31;103112.25;;;8.72;83.55
67109;BME280;54027;50.786;7.058;2023-02-04T09:31:57;103110.72;;;8.77;82.93
67109;BME280;54027;50.786;7.058;2023-02-04T09:34:22;103105.00;;;8.86;82.80
67109;BME280;54027;50.786;7.058;2023-02-04T09:36:48;103110.28;;;8.89;82.38
67109;BME280;54027;50.786;7.058;2023-02-04T09:39:13;103104.56;;;8.97;82.23
67109;BME280;54027;50.786;7.058;2023-02-04T09:41:39;103109.81;;;9.00;81.31
67109;BME280;54027;50.786;7.058;2023-02-04T09:44:17;103120.38;;;9.06;80.70
67109;BME280;54027;50.786;7.058;2023-02-04T09:46:48;103119.69;;;9.12;80.98
67109;BME280;54027;50.786;7.058;2023-02-04T09:49:15;103125.19;;;9.21;80.11
67109;BME280;54027;50.786;7.058;2023-02-04T09:51:41;103127.16;;;9.28;80.08
67109;BME280;54027;50.786;7.058;2023-02-04T09:54:12;103129.78;;;9.30;79.50
67109;BME280;54027;50.786;7.058;2023-02-04T09:56:38;103129.88;;;9.33;79.13
67109;BME280;54027;50.786;7.058;2023-02-04T09:59:15;103132.56;;;9.36;77.97
67109;BME280;54027;50.786;7.058;2023-02-04T10:01:40;103138.22;;;9.49;77.76
67109;BME280;54027;50.786;7.058;2023-02-04T10:04:13;103127.91;;;9.49;77.56
67109;BME280;54027;50.786;7.058;2023-02-04T10:06:40;103132.41;;;9.56;77.62
67109;BME280;54027;50.786;7.058;2023-02-04T10:09:11;103132.75;;;9.65;77.14
67109;BME280;54027;50.786;7.058;2023-02-04T10:11:39;103128.56;;;9.69;77.00
67109;BME280;54027;50.786;7.058;2023-02-04T10:14:11;103133.88;;;9.74;76.66
67109;BME280;54027;50.786;7.058;2023-02-04T10:16:38;103132.16;;;9.73;76.79
67109;BME280;54027;50.786;7.058;2023-02-04T10:19:12;103141.59;;;9.72;77.17
67109;BME280;54027;50.786;7.058;2023-02-04T10:21:38;103137.53;;;9.80;76.50
67109;BME280;54027;50.786;7.058;2023-02-04T10:24:10;103137.63;;;9.83;76.83
67109;BME280;54027;50.786;7.058;2023-02-04T10:26:38;103144.69;;;9.87;76.79
67109;BME280;54027;50.786;7.058;2023-02-04T10:29:06;103142.19;;;9.90;76.96
67109;BME280;54027;50.786;7.058;2023-02-04T10:31:36;103142.97;;;9.88;76.09
67109;BME280;54027;50.786;7.058;2023-02-04T10:36:27;103138.84;;;9.94;76.26
67109;BME280;54027;50.786;7.058;2023-02-04T10:39:10;103135.34;;;9.92;75.63
67109;BME280;54027;50.786;7.058;2023-02-04T10:41:36;103134.44;;;9.90;75.38
67109;BME280;54027;50.786;7.058;2023-02-04T10:44:10;103130.69;;;9.81;75.74
67109;BME280;54027;50.786;7.058;2023-02-04T10:46:36;103139.25;;;9.80;75.94
67109;BME280;54027;50.786;7.058;2023-02-04T10:49:17;103134.94;;;9.79;75.97
67109;BME280;54027;50.786;7.058;2023-02-04T10:51:43;103141.72;;;9.77;75.92
67109;BME280;54027;50.786;7.058;2023-02-04T10:54:12;103141.00;;;9.81;76.58
67109;BME280;54027;50.786;7.058;2023-02-04T10:57:22;103146.28;;;9.84;77.27
67109;BME280;54027;50.786;7.058;2023-02-04T10:59:49;103143.81;;;9.88;76.89
67109;BME280;54027;50.786;7.058;2023-02-04T11:05:07;103137.53;;;10.07;75.69
67109;BME280;54027;50.786;7.058;2023-02-04T11:07:34;103123.03;;;10.10;74.87
67109;BME280;54027;50.786;7.058;2023-02-04T11:09:59;103124.03;;;10.15;75.51
67109;BME280;54027;50.786;7.058;2023-02-04T11:15:32;103120.56;;;10.15;74.08
67109;BME280;54027;50.786;7.058;2023-02-04T11:18:02;103116.25;;;10.14;73.95
67109;BME280;54027;50.786;7.058;2023-02-04T11:20:32;103116.97;;;10.10;73.84
67109;BME280;54027;50.786;7.058;2023-02-04T11:23:34;103128.97;;;10.08;74.24
67109;BME280;54027;50.786;7.058;2023-02-04T11:36:33;103135.63;;;10.28;75.08
67109;BME280;54027;50.786;7.058;2023-02-04T11:39:10;103126.28;;;10.33;73.29
67109;BME280;54027;50.786;7.058;2023-02-04T11:41:43;103124.41;;;10.28;73.66
67109;BME280;54027;50.786;7.058;2023-02-04T11:44:09;103123.22;;;10.16;74.40
67109;BME280;54027;50.786;7.058;2023-02-04T11:46:35;103129.97;;;10.13;74.89
67109;BME280;54027;50.786;7.058;2023-02-04T11:49:00;103135.16;;;10.13;75.11
67109;BME280;54027;50.786;7.058;2023-02-04T11:51:31;103128.22;;;10.12;74.86
67109;BME280;54027;50.786;7.058;2023-02-04T11:53:58;103127.41;;;10.13;74.03
67109;BME280;54027;50.786;7.058;2023-02-04T11:56:28;103123.91;;;10.11;73.97
67109;BME280;54027;50.786;7.058;2023-02-04T11:58:56;103127.66;;;10.20;74.41
67109;BME280;54027;50.786;7.058;2023-02-04T12:01:24;103125.47;;;10.34;74.48
67109;BME280;54027;50.786;7.058;2023-02-04T12:03:58;103116.22;;;10.42;73.26
67109;BME280;54027;50.786;7.058;2023-02-04T12:06:28;103119.34;;;10.59;72.43
67109;BME280;54027;50.786;7.058;2023-02-04T12:09:28;103107.56;;;10.70;71.57
67109;BME280;54027;50.786;7.058;2023-02-04T12:12:01;103104.34;;;10.77;71.44
67109;BME280;54027;50.786;7.058;2023-02-04T12:14:33;103110.50;;;10.82;71.45
67109;BME280;54027;50.786;7.058;2023-02-04T12:16:59;103112.41;;;10.89;71.25
67109;BME280;54027;50.786;7.058;2023-02-04T12:19:24;103097.78;;;10.90;70.45
67109;BME280;54027;50.786;7.058;2023-02-04T12:21:50;103100.97;;;10.81;70.14
67109;BME280;54027;50.786;7.058;2023-02-04T12:24:15;103091.41;;;10.77;69.92
67109;BME280;54027;50.786;7.058;2023-02-04T12:26:41;103095.81;;;10.81;70.02
67109;BME280;54027;50.786;7.058;2023-02-04T12:29:06;103095.97;;;10.87;70.06
67109;BME280;54027;50.786;7.058;2023-02-04T12:31:32;103095.09;;;10.87;70.01
67109;BME280;54027;50.786;7.058;2023-02-04T12:33:58;103094.34;;;10.91;69.87
67109;BME280;54027;50.786;7.058;2023-02-04T12:36:25;103091.59;;;10.85;69.75
67109;BME280;54027;50.786;7.058;2023-02-04T12:38:52;103087.59;;;10.96;69.22
67109;BME280;54027;50.786;7.058;2023-02-04T12:41:18;103075.50;;;10.95;69.01
67109;BME280;54027;50.786;7.058;2023-02-04T12:43:44;103071.97;;;10.93;68.59
67109;BME280;54027;50.786;7.058;2023-02-04T12:46:10;103075.44;;;10.92;68.66
67109;BME280;54027;50.786;7.058;2023-02-04T12:48:36;103067.75;;;10.95;67.73
67109;BME280;54027;50.786;7.058;2023-02-04T12:51:05;103073.91;;;11.00;68.25
67109;BME280;54027;50.786;7.058;2023-02-04T12:53:31;103072.19;;;11.00;68.29
67109;BME280;54027;50.786;7.058;2023-02-04T12:55:56;103071.06;;;10.91;67.95
67109;BME280;54027;50.786;7.058;2023-02-04T12:58:21;103065.72;;;10.83;67.64
67109;BME280;54027;50.786;7.058;2023-02-04T13:00:47;103074.38;;;10.85;67.76
67109;BME280;54027;50.786;7.058;2023-02-04T13:03:12;103072.59;;;10.84;68.29
67109;BME280;54027;50.786;7.058;2023-02-04T13:05:38;103074.38;;;10.85;67.89
67109;BME280;54027;50.786;7.058;2023-02-04T13:08:03;103077.75;;;10.83;67.86
67109;BME280;54027;50.786;7.058;2023-02-04T13:10:29;103084.72;;;10.85;69.28
67109;BME280;54027;50.786;7.058;2023-02-04T13:12:54;103086.44;;;10.85;68.65
67109;BME280;54027;50.786;7.058;2023-02-04T13:15:20;103077.84;;;10.86;67.62